sensor_id;sensor_type;location;lat;lon;timestamp;P1;durP1;ratioP1;P2;durP2;ratioP2
1799;SDS011;919;48.274;12.292;2024-03-17T00:01:36;4.03;;;3.63;;
1799;SDS011;919;48.274;12.292;2024-03-17T00:04:06;4.93;;;4.50;;
1799;SDS011;919;48.274;12.292;2024-03-17T00:06:34;5.27;;;3.90;;
1799;SDS011;919;48.274;12.292;2024-03-17T00:09:01;7.60;;;4.70;;
1799;SDS011;919;48.274;12.292;2024-03-17T00:11:31;5.80;;;4.67;;
1799;SDS011;919;48.274;12.292;2024-03-17T00:13:59;4.93;;;4.43;;
1799;SDS011;919;48.274;12.292;2024-03-17T00:16:26;5.10;;;4.60;;
1799;SDS011;919;48.274;12.292;2024-03-17T00:18:52;4.50;;;4.00;;
1799;SDS011;919;48.274;12.292;2024-03-17T00:21:20;6.60;;;5.00;;
1799;SDS011;919;48.274;12.292;2024-03-17T00:23:49;4.57;;;4.17;;
1799;SDS011;919;48.274;12.292;2024-03-17T00:26:16;5.87;;;5.00;;
1799;SDS011;919;48.274;12.292;2024-03-17T00:28:44;6.80;;;4.87;;
1799;SDS011;919;48.274;12.292;2024-03-17T00:31:13;5.43;;;4.77;;
1799;SDS011;919;48.274;12.292;2024-03-17T00:33:40;5.70;;;5.10;;
1799;SDS011;919;48.274;12.292;2024-03-17T00:36:07;5.63;;;4.87;;
1799;SDS011;919;48.274;12.292;2024-03-17T00:38:33;4.40;;;4.00;;
1799;SDS011;919;48.274;12.292;2024-03-17T00:41:03;4.00;;;3.63;;
1799;SDS011;919;48.274;12.292;2024-03-17T00:43:31;4.93;;;4.17;;
1799;SDS011;919;48.274;12.292;2024-03-17T00:45:57;5.40;;;4.10;;
1799;SDS011;919;48.274;12.292;2024-03-17T00:48:24;5.40;;;3.87;;
1799;SDS011;919;48.274;12.292;2024-03-17T00:50:54;4.17;;;3.77;;
1799;SDS011;919;48.274;12.292;2024-03-17T00:53:24;3.93;;;3.63;;
1799;SDS011;919;48.274;12.292;2024-03-17T00:55:54;8.43;;;4.10;;
1799;SDS011;919;48.274;12.292;2024-03-17T00:58:24;4.27;;;3.80;;
1799;SDS011;919;48.274;12.292;2024-03-17T01:00:50;7.03;;;3.80;;
1799;SDS011;919;48.274;12.292;2024-03-17T01:03:17;9.63;;;4.37;;
1799;SDS011;919;48.274;12.292;2024-03-17T01:05:44;4.13;;;3.73;;
1799;SDS011;919;48.274;12.292;2024-03-17T01:08:12;5.47;;;4.23;;
1799;SDS011;919;48.274;12.292;2024-03-17T01:10:38;6.63;;;4.87;;
1799;SDS011;919;48.274;12.292;2024-03-17T01:13:06;5.63;;;4.70;;
1799;SDS011;919;48.274;12.292;2024-03-17T01:15:34;4.83;;;3.93;;
1799;SDS011;919;48.274;12.292;2024-03-17T01:18:02;5.47;;;4.20;;
1799;SDS011;919;48.274;12.292;2024-03-17T01:20:29;6.17;;;4.83;;
1799;SDS011;919;48.274;12.292;2024-03-17T01:22:56;5.70;;;4.50;;
1799;SDS011;919;48.274;12.292;2024-03-17T01:25:22;7.17;;;5.13;;
1799;SDS011;919;48.274;12.292;2024-03-17T01:27:51;6.63;;;4.83;;
1799;SDS011;919;48.274;12.292;2024-03-17T01:30:17;4.00;;;3.50;;
1799;SDS011;919;48.274;12.292;2024-03-17T01:32:48;4.90;;;4.50;;
1799;SDS011;919;48.274;12.292;2024-03-17T01:35:17;4.73;;;3.60;;
1799;SDS011;919;48.274;12.292;2024-03-17T01:37:45;5.17;;;4.47;;
1799;SDS011;919;48.274;12.292;2024-03-17T01:40:11;5.00;;;4.43;;
1799;SDS011;919;48.274;12.292;2024-03-17T01:42:38;4.70;;;4.30;;
1799;SDS011;919;48.274;12.292;2024-03-17T01:45:18;4.77;;;4.27;;
1799;SDS011;919;48.274;12.292;2024-03-17T01:47:53;4.33;;;3.93;;
1799;SDS011;919;48.274;12.292;2024-03-17T01:50:22;6.00;;;4.23;;
1799;SDS011;919;48.274;12.292;2024-03-17T01:52:51;3.77;;;3.40;;
1799;SDS011;919;48.274;12.292;2024-03-17T01:55:19;4.50;;;4.10;;
1799;SDS011;919;48.274;12.292;2024-03-17T01:57:47;4.70;;;4.30;;
1799;SDS011;919;48.274;12.292;2024-03-17T02:00:13;5.00;;;4.50;;
1799;SDS011;919;48.274;12.292;2024-03-17T02:02:41;4.33;;;3.93;;
1799;SDS011;919;48.274;12.292;2024-03-17T02:05:08;5.03;;;4.23;;
1799;SDS011;919;48.274;12.292;2024-03-17T02:07:36;5.27;;;4.60;;
1799;SDS011;919;48.274;12.292;2024-03-17T02:10:02;4.70;;;4.10;;
1799;SDS011;919;48.274;12.292;2024-03-17T02:12:30;4.47;;;3.77;;
1799;SDS011;919;48.274;12.292;2024-03-17T02:14:58;3.77;;;3.17;;
1799;SDS011;919;48.274;12.292;2024-03-17T02:17:25;5.90;;;4.20;;
1799;SDS011;919;48.274;12.292;2024-03-17T02:19:52;4.23;;;3.67;;
1799;SDS011;919;48.274;12.292;2024-03-17T02:22:21;5.57;;;4.73;;
1799;SDS011;919;48.274;12.292;2024-03-17T02:24:47;5.00;;;3.77;;
1799;SDS011;919;48.274;12.292;2024-03-17T02:27:14;5.53;;;4.67;;
1799;SDS011;919;48.274;12.292;2024-03-17T02:29:40;5.10;;;3.73;;
1799;SDS011;919;48.274;12.292;2024-03-17T02:32:07;5.03;;;4.50;;
1799;SDS011;919;48.274;12.292;2024-03-17T02:34:33;4.90;;;4.17;;
1799;SDS011;919;48.274;12.292;2024-03-17T02:37:01;5.40;;;4.13;;
1799;SDS011;919;48.274;12.292;2024-03-17T02:39:30;6.30;;;4.63;;
1799;SDS011;919;48.274;12.292;2024-03-17T02:41:59;4.93;;;3.80;;
1799;SDS011;919;48.274;12.292;2024-03-17T02:44:26;4.10;;;3.53;;
1799;SDS011;919;48.274;12.292;2024-03-17T02:46:53;4.37;;;3.47;;
1799;SDS011;919;48.274;12.292;2024-03-17T02:49:20;5.43;;;4.60;;
1799;SDS011;919;48.274;12.292;2024-03-17T02:51:47;4.47;;;4.07;;
1799;SDS011;919;48.274;12.292;2024-03-17T02:54:14;3.97;;;3.67;;
1799;SDS011;919;48.274;12.292;2024-03-17T02:56:43;3.10;;;2.83;;
1799;SDS011;919;48.274;12.292;2024-03-17T02:59:11;2.60;;;2.30;;
1799;SDS011;919;48.274;12.292;2024-03-17T03:01:38;2.40;;;2.20;;
1799;SDS011;919;48.274;12.292;2024-03-17T03:04:05;5.33;;;3.57;;
1799;SDS011;919;48.274;12.292;2024-03-17T03:06:33;2.80;;;2.60;;
1799;SDS011;919;48.274;12.292;2024-03-17T03:09:00;3.60;;;3.30;;
1799;SDS011;919;48.274;12.292;2024-03-17T03:11:27;3.77;;;3.37;;
1799;SDS011;919;48.274;12.292;2024-03-17T03:13:55;4.60;;;4.20;;
1799;SDS011;919;48.274;12.292;2024-03-17T03:16:22;6.37;;;3.80;;
1799;SDS011;919;48.274;12.292;2024-03-17T03:18:50;4.67;;;3.10;;
1799;SDS011;919;48.274;12.292;2024-03-17T03:21:17;3.33;;;3.03;;
1799;SDS011;919;48.274;12.292;2024-03-17T03:23:44;3.50;;;3.20;;
1799;SDS011;919;48.274;12.292;2024-03-17T03:26:11;4.87;;;3.33;;
1799;SDS011;919;48.274;12.292;2024-03-17T03:28:38;4.73;;;3.47;;
1799;SDS011;919;48.274;12.292;2024-03-17T03:31:07;5.10;;;3.90;;
1799;SDS011;919;48.274;12.292;2024-03-17T03:33:38;3.40;;;3.10;;
1799;SDS011;919;48.274;12.292;2024-03-17T03:36:09;3.37;;;3.03;;
1799;SDS011;919;48.274;12.292;2024-03-17T03:38:36;3.77;;;3.40;;
1799;SDS011;919;48.274;12.292;2024-03-17T03:41:08;4.50;;;3.67;;
1799;SDS011;919;48.274;12.292;2024-03-17T03:43:36;3.60;;;3.27;;
1799;SDS011;919;48.274;12.292;2024-03-17T03:46:03;6.73;;;4.27;;
1799;SDS011;919;48.274;12.292;2024-03-17T03:48:32;4.33;;;3.70;;
1799;SDS011;919;48.274;12.292;2024-03-17T03:50:59;5.53;;;4.13;;
1799;SDS011;919;48.274;12.292;2024-03-17T03:53:29;5.90;;;4.70;;
1799;SDS011;919;48.274;12.292;2024-03-17T03:55:56;5.87;;;4.73;;
1799;SDS011;919;48.274;12.292;2024-03-17T03:58:24;5.70;;;4.60;;
1799;SDS011;919;48.274;12.292;2024-03-17T04:00:51;5.80;;;5.07;;
1799;SDS011;919;48.274;12.292;2024-03-17T04:03:18;6.40;;;4.57;;
1799;SDS011;919;48.274;12.292;2024-03-17T04:05:47;6.33;;;4.63;;
1799;SDS011;919;48.274;12.292;2024-03-17T04:08:13;5.77;;;3.90;;
1799;SDS011;919;48.274;12.292;2024-03-17T04:10:40;4.13;;;3.73;;
1799;SDS011;919;48.274;12.292;2024-03-17T04:13:09;4.97;;;3.90;;
1799;SDS011;919;48.274;12.292;2024-03-17T04:15:36;4.03;;;3.70;;
1799;SDS011;919;48.274;12.292;2024-03-17T04:18:04;6.27;;;4.67;;
1799;SDS011;919;48.274;12.292;2024-03-17T04:20:31;4.33;;;3.93;;
1799;SDS011;919;48.274;12.292;2024-03-17T04:23:00;5.30;;;4.53;;
1799;SDS011;919;48.274;12.292;2024-03-17T04:25:28;4.07;;;3.67;;
1799;SDS011;919;48.274;12.292;2024-03-17T04:27:55;4.90;;;4.30;;
1799;SDS011;919;48.274;12.292;2024-03-17T04:30:22;4.77;;;4.27;;
1799;SDS011;919;48.274;12.292;2024-03-17T04:32:49;10.23;;;4.33;;
1799;SDS011;919;48.274;12.292;2024-03-17T04:35:17;5.50;;;4.70;;
1799;SDS011;919;48.274;12.292;2024-03-17T04:37:44;7.20;;;4.90;;
1799;SDS011;919;48.274;12.292;2024-03-17T04:40:13;5.23;;;4.53;;
1799;SDS011;919;48.274;12.292;2024-03-17T04:42:40;4.37;;;3.90;;
1799;SDS011;919;48.274;12.292;2024-03-17T04:45:07;4.27;;;3.23;;
1799;SDS011;919;48.274;12.292;2024-03-17T04:47:35;4.50;;;3.70;;
1799;SDS011;919;48.274;12.292;2024-03-17T04:50:03;5.00;;;4.50;;
1799;SDS011;919;48.274;12.292;2024-03-17T04:52:30;4.20;;;3.70;;
1799;SDS011;919;48.274;12.292;2024-03-17T04:54:57;5.63;;;4.73;;
1799;SDS011;919;48.274;12.292;2024-03-17T04:57:25;4.93;;;3.80;;
1799;SDS011;919;48.274;12.292;2024-03-17T04:59:53;5.07;;;4.33;;
1799;SDS011;919;48.274;12.292;2024-03-17T05:02:20;5.43;;;4.70;;
1799;SDS011;919;48.274;12.292;2024-03-17T05:04:48;5.73;;;3.70;;
1799;SDS011;919;48.274;12.292;2024-03-17T05:07:14;5.33;;;4.43;;
1799;SDS011;919;48.274;12.292;2024-03-17T05:09:41;4.07;;;3.67;;
1799;SDS011;919;48.274;12.292;2024-03-17T05:12:09;4.73;;;3.90;;
1799;SDS011;919;48.274;12.292;2024-03-17T05:14:37;5.67;;;3.90;;
1799;SDS011;919;48.274;12.292;2024-03-17T05:17:04;5.57;;;4.10;;
1799;SDS011;919;48.274;12.292;2024-03-17T05:19:31;5.40;;;4.87;;
1799;SDS011;919;48.274;12.292;2024-03-17T05:21:58;5.43;;;4.50;;
1799;SDS011;919;48.274;12.292;2024-03-17T05:24:26;4.97;;;4.30;;
1799;SDS011;919;48.274;12.292;2024-03-17T05:26:52;4.83;;;4.10;;
1799;SDS011;919;48.274;12.292;2024-03-17T05:29:19;5.50;;;4.73;;
1799;SDS011;919;48.274;12.292;2024-03-17T05:31:49;4.97;;;4.20;;
1799;SDS011;919;48.274;12.292;2024-03-17T05:34:16;4.10;;;3.70;;
1799;SDS011;919;48.274;12.292;2024-03-17T05:36:42;5.50;;;5.00;;
1799;SDS011;919;48.274;12.292;2024-03-17T05:39:11;4.17;;;3.77;;
1799;SDS011;919;48.274;12.292;2024-03-17T05:41:39;5.47;;;4.10;;
1799;SDS011;919;48.274;12.292;2024-03-17T05:44:06;6.03;;;4.80;;
1799;SDS011;919;48.274;12.292;2024-03-17T05:46:33;5.03;;;3.90;;
1799;SDS011;919;48.274;12.292;2024-03-17T05:49:01;6.30;;;4.87;;
1799;SDS011;919;48.274;12.292;2024-03-17T05:51:29;4.60;;;3.77;;
1799;SDS011;919;48.274;12.292;2024-03-17T05:53:56;5.10;;;4.60;;
1799;SDS011;919;48.274;12.292;2024-03-17T05:56:23;5.97;;;4.07;;
1799;SDS011;919;48.274;12.292;2024-03-17T05:58:51;5.70;;;4.20;;
1799;SDS011;919;48.274;12.292;2024-03-17T06:01:18;5.23;;;4.70;;
1799;SDS011;919;48.274;12.292;2024-03-17T06:03:47;4.83;;;4.30;;
1799;SDS011;919;48.274;12.292;2024-03-17T06:06:16;5.60;;;4.27;;
1799;SDS011;919;48.274;12.292;2024-03-17T06:08:42;5.33;;;4.30;;
1799;SDS011;919;48.274;12.292;2024-03-17T06:11:10;5.10;;;4.60;;
1799;SDS011;919;48.274;12.292;2024-03-17T06:13:37;5.13;;;4.00;;
1799;SDS011;919;48.274;12.292;2024-03-17T06:16:04;4.30;;;3.87;;
1799;SDS011;919;48.274;12.292;2024-03-17T06:18:32;4.10;;;3.47;;
1799;SDS011;919;48.274;12.292;2024-03-17T06:20:59;5.20;;;4.50;;
1799;SDS011;919;48.274;12.292;2024-03-17T06:23:28;5.97;;;4.80;;
1799;SDS011;919;48.274;12.292;2024-03-17T06:25:56;5.80;;;4.73;;
1799;SDS011;919;48.274;12.292;2024-03-17T06:28:22;5.00;;;4.50;;
1799;SDS011;919;48.274;12.292;2024-03-17T06:30:54;5.40;;;4.70;;
1799;SDS011;919;48.274;12.292;2024-03-17T06:33:22;6.23;;;5.33;;
1799;SDS011;919;48.274;12.292;2024-03-17T06:35:49;6.50;;;5.30;;
1799;SDS011;919;48.274;12.292;2024-03-17T06:38:16;6.00;;;5.10;;
1799;SDS011;919;48.274;12.292;2024-03-17T06:40:49;6.17;;;5.20;;
1799;SDS011;919;48.274;12.292;2024-03-17T06:43:16;7.23;;;5.00;;
1799;SDS011;919;48.274;12.292;2024-03-17T06:45:53;6.13;;;5.37;;
1799;SDS011;919;48.274;12.292;2024-03-17T06:48:20;6.80;;;5.30;;
1799;SDS011;919;48.274;12.292;2024-03-17T06:50:47;7.70;;;5.53;;
1799;SDS011;919;48.274;12.292;2024-03-17T06:53:13;5.23;;;4.70;;
1799;SDS011;919;48.274;12.292;2024-03-17T06:55:40;6.30;;;5.40;;
1799;SDS011;919;48.274;12.292;2024-03-17T06:58:09;5.40;;;4.87;;
1799;SDS011;919;48.274;12.292;2024-03-17T07:00:36;8.73;;;5.27;;
1799;SDS011;919;48.274;12.292;2024-03-17T07:03:03;5.90;;;4.80;;
1799;SDS011;919;48.274;12.292;2024-03-17T07:05:31;5.97;;;5.00;;
1799;SDS011;919;48.274;12.292;2024-03-17T07:07:58;8.30;;;6.70;;
1799;SDS011;919;48.274;12.292;2024-03-17T07:10:25;6.10;;;5.50;;
1799;SDS011;919;48.274;12.292;2024-03-17T07:12:52;8.63;;;7.20;;
1799;SDS011;919;48.274;12.292;2024-03-17T07:15:20;9.00;;;7.13;;
1799;SDS011;919;48.274;12.292;2024-03-17T07:17:49;9.03;;;5.87;;
1799;SDS011;919;48.274;12.292;2024-03-17T07:20:17;8.70;;;7.07;;
1799;SDS011;919;48.274;12.292;2024-03-17T07:22:44;7.40;;;5.93;;
1799;SDS011;919;48.274;12.292;2024-03-17T07:25:11;7.97;;;5.83;;
1799;SDS011;919;48.274;12.292;2024-03-17T07:27:38;8.67;;;5.93;;
1799;SDS011;919;48.274;12.292;2024-03-17T07:30:06;7.10;;;5.73;;
1799;SDS011;919;48.274;12.292;2024-03-17T07:32:35;8.57;;;6.87;;
1799;SDS011;919;48.274;12.292;2024-03-17T07:35:03;8.50;;;6.70;;
1799;SDS011;919;48.274;12.292;2024-03-17T07:37:30;8.83;;;7.30;;
1799;SDS011;919;48.274;12.292;2024-03-17T07:40:00;11.20;;;8.40;;
1799;SDS011;919;48.274;12.292;2024-03-17T07:42:27;8.67;;;7.77;;
1799;SDS011;919;48.274;12.292;2024-03-17T07:44:54;10.33;;;7.83;;
1799;SDS011;919;48.274;12.292;2024-03-17T07:47:21;9.33;;;7.07;;
1799;SDS011;919;48.274;12.292;2024-03-17T07:49:49;8.40;;;7.30;;
1799;SDS011;919;48.274;12.292;2024-03-17T07:52:15;8.63;;;7.53;;
1799;SDS011;919;48.274;12.292;2024-03-17T07:54:42;8.80;;;6.27;;
1799;SDS011;919;48.274;12.292;2024-03-17T07:57:12;13.30;;;7.87;;
1799;SDS011;919;48.274;12.292;2024-03-17T07:59:40;10.80;;;9.17;;
1799;SDS011;919;48.274;12.292;2024-03-17T08:02:08;12.47;;;9.53;;
1799;SDS011;919;48.274;12.292;2024-03-17T08:04:35;11.00;;;8.43;;
1799;SDS011;919;48.274;12.292;2024-03-17T08:07:05;9.10;;;7.33;;
1799;SDS011;919;48.274;12.292;2024-03-17T08:09:32;9.20;;;7.73;;
1799;SDS011;919;48.274;12.292;2024-03-17T08:11:59;12.73;;;8.93;;
1799;SDS011;919;48.274;12.292;2024-03-17T08:14:27;9.47;;;7.90;;
1799;SDS011;919;48.274;12.292;2024-03-17T08:16:55;11.80;;;8.73;;
1799;SDS011;919;48.274;12.292;2024-03-17T08:19:22;11.93;;;8.33;;
1799;SDS011;919;48.274;12.292;2024-03-17T08:21:50;12.10;;;8.90;;
1799;SDS011;919;48.274;12.292;2024-03-17T08:24:20;11.37;;;7.07;;
1799;SDS011;919;48.274;12.292;2024-03-17T08:26:48;10.77;;;8.00;;
1799;SDS011;919;48.274;12.292;2024-03-17T08:29:15;10.80;;;8.00;;
1799;SDS011;919;48.274;12.292;2024-03-17T08:31:42;11.73;;;7.63;;
1799;SDS011;919;48.274;12.292;2024-03-17T08:34:10;10.97;;;7.73;;
1799;SDS011;919;48.274;12.292;2024-03-17T08:36:37;9.70;;;7.57;;
1799;SDS011;919;48.274;12.292;2024-03-17T08:39:06;10.80;;;8.00;;
1799;SDS011;919;48.274;12.292;2024-03-17T08:41:37;12.20;;;7.70;;
1799;SDS011;919;48.274;12.292;2024-03-17T08:44:05;13.53;;;8.73;;
1799;SDS011;919;48.274;12.292;2024-03-17T08:46:33;10.73;;;7.60;;
1799;SDS011;919;48.274;12.292;2024-03-17T08:49:00;10.13;;;7.67;;
1799;SDS011;919;48.274;12.292;2024-03-17T08:51:26;10.70;;;7.63;;
1799;SDS011;919;48.274;12.292;2024-03-17T08:53:53;10.07;;;8.20;;
1799;SDS011;919;48.274;12.292;2024-03-17T08:56:22;10.70;;;7.83;;
1799;SDS011;919;48.274;12.292;2024-03-17T08:58:50;9.67;;;7.67;;
1799;SDS011;919;48.274;12.292;2024-03-17T09:01:17;12.20;;;8.17;;
1799;SDS011;919;48.274;12.292;2024-03-17T09:03:44;10.00;;;7.40;;
1799;SDS011;919;48.274;12.292;2024-03-17T09:06:15;11.97;;;7.63;;
1799;SDS011;919;48.274;12.292;2024-03-17T09:08:44;10.90;;;8.20;;
1799;SDS011;919;48.274;12.292;2024-03-17T09:11:12;8.23;;;6.73;;
1799;SDS011;919;48.274;12.292;2024-03-17T09:13:39;9.43;;;7.30;;
1799;SDS011;919;48.274;12.292;2024-03-17T09:16:07;10.43;;;7.57;;
1799;SDS011;919;48.274;12.292;2024-03-17T09:18:38;13.73;;;7.40;;
1799;SDS011;919;48.274;12.292;2024-03-17T09:21:05;9.50;;;7.53;;
1799;SDS011;919;48.274;12.292;2024-03-17T09:23:33;8.77;;;6.50;;
1799;SDS011;919;48.274;12.292;2024-03-17T09:26:02;9.00;;;7.10;;
1799;SDS011;919;48.274;12.292;2024-03-17T09:28:30;9.13;;;7.43;;
1799;SDS011;919;48.274;12.292;2024-03-17T09:30:58;10.37;;;7.50;;
1799;SDS011;919;48.274;12.292;2024-03-17T09:33:27;9.20;;;7.53;;
1799;SDS011;919;48.274;12.292;2024-03-17T09:35:56;10.03;;;7.43;;
1799;SDS011;919;48.274;12.292;2024-03-17T09:38:23;9.10;;;6.80;;
1799;SDS011;919;48.274;12.292;2024-03-17T09:40:50;8.93;;;7.43;;
1799;SDS011;919;48.274;12.292;2024-03-17T09:43:23;10.57;;;6.97;;
1799;SDS011;919;48.274;12.292;2024-03-17T09:45:51;8.23;;;7.30;;
1799;SDS011;919;48.274;12.292;2024-03-17T09:48:21;9.80;;;7.00;;
1799;SDS011;919;48.274;12.292;2024-03-17T09:50:52;7.67;;;6.47;;
1799;SDS011;919;48.274;12.292;2024-03-17T09:53:23;10.27;;;7.67;;
1799;SDS011;919;48.274;12.292;2024-03-17T09:55:51;9.77;;;7.53;;
1799;SDS011;919;48.274;12.292;2024-03-17T09:58:19;8.70;;;7.10;;
1799;SDS011;919;48.274;12.292;2024-03-17T10:00:46;9.43;;;6.93;;
1799;SDS011;919;48.274;12.292;2024-03-17T10:03:15;8.30;;;6.97;;
1799;SDS011;919;48.274;12.292;2024-03-17T10:06:11;9.40;;;7.10;;
1799;SDS011;919;48.274;12.292;2024-03-17T10:08:44;8.37;;;6.97;;
1799;SDS011;919;48.274;12.292;2024-03-17T10:11:16;8.53;;;7.20;;
1799;SDS011;919;48.274;12.292;2024-03-17T10:13:44;8.40;;;6.77;;
1799;SDS011;919;48.274;12.292;2024-03-17T10:16:20;8.63;;;7.20;;
1799;SDS011;919;48.274;12.292;2024-03-17T10:18:50;7.73;;;5.60;;
1799;SDS011;919;48.274;12.292;2024-03-17T10:21:26;6.37;;;5.77;;
1799;SDS011;919;48.274;12.292;2024-03-17T10:24:07;8.23;;;6.60;;
1799;SDS011;919;48.274;12.292;2024-03-17T10:26:37;8.43;;;6.47;;
1799;SDS011;919;48.274;12.292;2024-03-17T10:29:14;7.10;;;6.43;;
1799;SDS011;919;48.274;12.292;2024-03-17T10:31:50;7.27;;;6.10;;
1799;SDS011;919;48.274;12.292;2024-03-17T10:34:18;8.33;;;6.73;;
1799;SDS011;919;48.274;12.292;2024-03-17T10:36:46;7.00;;;5.90;;
1799;SDS011;919;48.274;12.292;2024-03-17T10:39:22;8.73;;;6.30;;
1799;SDS011;919;48.274;12.292;2024-03-17T10:41:55;6.83;;;5.20;;
1799;SDS011;919;48.274;12.292;2024-03-17T10:44:24;6.20;;;5.60;;
1799;SDS011;919;48.274;12.292;2024-03-17T10:46:52;7.90;;;6.30;;
1799;SDS011;919;48.274;12.292;2024-03-17T10:59:54;6.50;;;5.37;;
1799;SDS011;919;48.274;12.292;2024-03-17T11:02:41;5.80;;;5.20;;
1799;SDS011;919;48.274;12.292;2024-03-17T11:05:40;6.30;;;5.70;;
1799;SDS011;919;48.274;12.292;2024-03-17T11:08:09;6.70;;;5.77;;
1799;SDS011;919;48.274;12.292;2024-03-17T11:10:48;7.70;;;5.93;;
1799;SDS011;919;48.274;12.292;2024-03-17T11:13:24;6.43;;;5.70;;
1799;SDS011;919;48.274;12.292;2024-03-17T11:15:53;6.80;;;5.70;;
1799;SDS011;919;48.274;12.292;2024-03-17T11:18:36;5.30;;;4.80;;
1799;SDS011;919;48.274;12.292;2024-03-17T11:21:19;6.37;;;5.63;;
1799;SDS011;919;48.274;12.292;2024-03-17T11:24:00;4.87;;;4.37;;
1799;SDS011;919;48.274;12.292;2024-03-17T11:26:29;6.23;;;5.07;;
1799;SDS011;919;48.274;12.292;2024-03-17T11:28:57;6.37;;;5.77;;
1799;SDS011;919;48.274;12.292;2024-03-17T11:31:40;6.83;;;6.13;;
1799;SDS011;919;48.274;12.292;2024-03-17T11:36:56;5.03;;;4.07;;
1799;SDS011;919;48.274;12.292;2024-03-17T11:42:18;4.20;;;3.80;;
1799;SDS011;919;48.274;12.292;2024-03-17T11:44:55;6.00;;;5.07;;
1799;SDS011;919;48.274;12.292;2024-03-17T11:50:11;5.43;;;4.93;;
1799;SDS011;919;48.274;12.292;2024-03-17T11:52:39;6.47;;;5.10;;
1799;SDS011;919;48.274;12.292;2024-03-17T11:55:15;5.07;;;4.57;;
1799;SDS011;919;48.274;12.292;2024-03-17T11:57:43;5.73;;;5.13;;
1799;SDS011;919;48.274;12.292;2024-03-17T12:00:18;5.93;;;4.90;;
1799;SDS011;919;48.274;12.292;2024-03-17T12:02:50;4.90;;;4.43;;
1799;SDS011;919;48.274;12.292;2024-03-17T12:05:16;5.40;;;4.70;;
1799;SDS011;919;48.274;12.292;2024-03-17T12:07:43;5.53;;;4.80;;
1799;SDS011;919;48.274;12.292;2024-03-17T12:10:10;5.70;;;5.03;;
1799;SDS011;919;48.274;12.292;2024-03-17T12:12:40;8.30;;;4.90;;
1799;SDS011;919;48.274;12.292;2024-03-17T12:15:16;7.47;;;5.60;;
1799;SDS011;919;48.274;12.292;2024-03-17T12:17:44;5.00;;;4.50;;
1799;SDS011;919;48.274;12.292;2024-03-17T12:20:18;5.00;;;4.50;;
1799;SDS011;919;48.274;12.292;2024-03-17T12:22:46;6.63;;;4.77;;
1799;SDS011;919;48.274;12.292;2024-03-17T12:25:16;6.30;;;4.80;;
1799;SDS011;919;48.274;12.292;2024-03-17T12:27:45;5.67;;;5.17;;
1799;SDS011;919;48.274;12.292;2024-03-17T12:30:14;4.60;;;4.20;;
1799;SDS011;919;48.274;12.292;2024-03-17T12:32:42;4.47;;;4.03;;
1799;SDS011;919;48.274;12.292;2024-03-17T12:35:12;4.37;;;3.97;;
1799;SDS011;919;48.274;12.292;2024-03-17T12:37:44;4.53;;;4.13;;
1799;SDS011;919;48.274;12.292;2024-03-17T12:40:17;4.53;;;4.10;;
1799;SDS011;919;48.274;12.292;2024-03-17T12:42:47;5.57;;;5.07;;
1799;SDS011;919;48.274;12.292;2024-03-17T12:45:18;6.50;;;4.60;;
1799;SDS011;919;48.274;12.292;2024-03-17T12:47:46;5.00;;;4.40;;
1799;SDS011;919;48.274;12.292;2024-03-17T12:50:13;6.87;;;5.80;;
1799;SDS011;919;48.274;12.292;2024-03-17T12:52:51;6.10;;;5.07;;
1799;SDS011;919;48.274;12.292;2024-03-17T12:55:19;5.50;;;5.00;;
1799;SDS011;919;48.274;12.292;2024-03-17T12:58:07;5.43;;;4.50;;
1799;SDS011;919;48.274;12.292;2024-03-17T13:01:00;4.90;;;4.33;;
1799;SDS011;919;48.274;12.292;2024-03-17T13:03:28;4.93;;;4.47;;
1799;SDS011;919;48.274;12.292;2024-03-17T13:05:57;5.37;;;4.87;;
1799;SDS011;919;48.274;12.292;2024-03-17T13:08:26;8.00;;;5.60;;
1799;SDS011;919;48.274;12.292;2024-03-17T13:10:53;6.17;;;5.23;;
1799;SDS011;919;48.274;12.292;2024-03-17T13:13:20;6.73;;;5.00;;
1799;SDS011;919;48.274;12.292;2024-03-17T13:15:47;4.60;;;4.20;;
1799;SDS011;919;48.274;12.292;2024-03-17T13:18:15;5.37;;;4.87;;
1799;SDS011;919;48.274;12.292;2024-03-17T13:20:44;6.00;;;4.83;;
1799;SDS011;919;48.274;12.292;2024-03-17T13:23:11;4.17;;;3.87;;
1799;SDS011;919;48.274;12.292;2024-03-17T13:25:40;5.20;;;4.77;;
1799;SDS011;919;48.274;12.292;2024-03-17T13:28:08;7.27;;;5.60;;
1799;SDS011;919;48.274;12.292;2024-03-17T13:30:36;7.03;;;4.73;;
1799;SDS011;919;48.274;12.292;2024-03-17T13:33:03;6.07;;;4.37;;
1799;SDS011;919;48.274;12.292;2024-03-17T13:35:33;4.40;;;4.00;;
1799;SDS011;919;48.274;12.292;2024-03-17T13:38:04;7.27;;;4.20;;
1799;SDS011;919;48.274;12.292;2024-03-17T13:40:32;5.23;;;4.40;;
1799;SDS011;919;48.274;12.292;2024-03-17T13:43:01;4.90;;;3.83;;
1799;SDS011;919;48.274;12.292;2024-03-17T13:45:28;5.27;;;4.77;;
1799;SDS011;919;48.274;12.292;2024-03-17T13:47:58;5.73;;;5.23;;
1799;SDS011;919;48.274;12.292;2024-03-17T13:50:26;8.63;;;6.90;;
1799;SDS011;919;48.274;12.292;2024-03-17T13:52:53;8.20;;;4.67;;
1799;SDS011;919;48.274;12.292;2024-03-17T13:55:20;5.47;;;4.97;;
1799;SDS011;919;48.274;12.292;2024-03-17T13:57:49;5.60;;;5.13;;
1799;SDS011;919;48.274;12.292;2024-03-17T14:00:19;6.40;;;4.27;;
1799;SDS011;919;48.274;12.292;2024-03-17T14:02:47;5.10;;;4.10;;
1799;SDS011;919;48.274;12.292;2024-03-17T14:05:15;4.53;;;4.13;;
1799;SDS011;919;48.274;12.292;2024-03-17T14:07:43;5.10;;;4.60;;
1799;SDS011;919;48.274;12.292;2024-03-17T14:10:11;5.03;;;4.53;;
1799;SDS011;919;48.274;12.292;2024-03-17T14:12:39;4.87;;;4.13;;
1799;SDS011;919;48.274;12.292;2024-03-17T14:15:06;3.87;;;3.37;;
1799;SDS011;919;48.274;12.292;2024-03-17T14:17:37;5.20;;;4.60;;
1799;SDS011;919;48.274;12.292;2024-03-17T14:20:04;5.50;;;4.30;;
1799;SDS011;919;48.274;12.292;2024-03-17T14:22:34;7.17;;;4.00;;
1799;SDS011;919;48.274;12.292;2024-03-17T14:25:01;4.30;;;3.93;;
1799;SDS011;919;48.274;12.292;2024-03-17T14:27:28;5.60;;;4.33;;
1799;SDS011;919;48.274;12.292;2024-03-17T14:29:55;6.53;;;4.47;;
1799;SDS011;919;48.274;12.292;2024-03-17T14:32:22;4.60;;;4.20;;
1799;SDS011;919;48.274;12.292;2024-03-17T14:34:51;4.20;;;3.67;;
1799;SDS011;919;48.274;12.292;2024-03-17T14:37:17;4.83;;;4.33;;
1799;SDS011;919;48.274;12.292;2024-03-17T14:39:44;3.93;;;3.57;;
1799;SDS011;919;48.274;12.292;2024-03-17T14:42:11;5.90;;;4.97;;
1799;SDS011;919;48.274;12.292;2024-03-17T14:44:37;5.77;;;5.10;;
1799;SDS011;919;48.274;12.292;2024-03-17T14:47:04;4.47;;;4.07;;
1799;SDS011;919;48.274;12.292;2024-03-17T14:49:31;3.77;;;3.37;;
1799;SDS011;919;48.274;12.292;2024-03-17T14:52:00;3.40;;;3.13;;
1799;SDS011;919;48.274;12.292;2024-03-17T14:54:27;5.00;;;3.60;;
1799;SDS011;919;48.274;12.292;2024-03-17T14:56:54;3.33;;;3.03;;
1799;SDS011;919;48.274;12.292;2024-03-17T14:59:22;8.40;;;3.37;;
1799;SDS011;919;48.274;12.292;2024-03-17T15:01:50;3.60;;;3.30;;
1799;SDS011;919;48.274;12.292;2024-03-17T15:04:18;3.53;;;3.23;;
1799;SDS011;919;48.274;12.292;2024-03-17T15:06:46;3.70;;;3.13;;
1799;SDS011;919;48.274;12.292;2024-03-17T15:09:14;4.53;;;3.57;;
1799;SDS011;919;48.274;12.292;2024-03-17T15:11:47;3.27;;;2.97;;
1799;SDS011;919;48.274;12.292;2024-03-17T15:14:14;4.80;;;3.90;;
1799;SDS011;919;48.274;12.292;2024-03-17T15:16:43;5.10;;;3.70;;
1799;SDS011;919;48.274;12.292;2024-03-17T15:19:12;5.67;;;4.40;;
1799;SDS011;919;48.274;12.292;2024-03-17T15:21:39;5.60;;;3.77;;
1799;SDS011;919;48.274;12.292;2024-03-17T15:24:08;3.97;;;3.60;;
1799;SDS011;919;48.274;12.292;2024-03-17T15:26:37;3.83;;;3.53;;
1799;SDS011;919;48.274;12.292;2024-03-17T15:29:04;7.33;;;4.40;;
1799;SDS011;919;48.274;12.292;2024-03-17T15:31:32;7.20;;;4.13;;
1799;SDS011;919;48.274;12.292;2024-03-17T15:34:01;3.00;;;2.70;;
1799;SDS011;919;48.274;12.292;2024-03-17T15:36:28;4.30;;;3.80;;
1799;SDS011;919;48.274;12.292;2024-03-17T15:38:56;4.43;;;3.43;;
1799;SDS011;919;48.274;12.292;2024-03-17T15:41:25;3.97;;;3.57;;
1799;SDS011;919;48.274;12.292;2024-03-17T15:43:53;5.73;;;3.87;;